TAF Text Data
IDs:
Format:
Raw Decoded Include METAR

Data at: 0557 UTC 07 Dec 2022

KLEB 070534Z 0706/0806 VRB03KT P6SM -RA BKN016 OVC035 WS020/14035KT
  FM070800 11004KT 3SM RA BR FEW007 OVC060
  FM071200 12004KT 5SM -SHRA BR BKN007 OVC012
  FM072100 VRB03KT 3SM -RA BR OVC005
  FM080200 00000KT 1SM BR OVC003